Startpagina
METAR-TAF:

METAR-TAF

Vliegvelden :

Vliegbasis Eindhoven

Eindhoven, Nederland

breedte: 51-27N, lengte: 005-25E, hoogte: 23 m

Actueel weer

Dit bericht is 10 minuten geleden gemaakt, om 23:25 UTC
Wind 4 kt uit het zuidoosten, variërend tussen het oosten en het zuiden
Temperatuur 5°C
Vochtigheid 100%
Druk 1025 hPa
Zicht: 6000 m
Geheel bewolkt op 33000 ft
nevel

METAR: EHEH 142325Z AUTO 13004KT 100V180 6000 BR OVC330 05/05 Q1025 WHT

Tijdstip: 00:35 (23:35 UTC)

Verwachting

Dit bericht is 5 uur en het 47 minuten geleden gemaakt, om 17:48 UTC
Verwachting geldig van 14 om 18 UTC tot 15 om 24 UTC
Wind 5 kt uit het zuidoosten
Zicht 10 km of meer
geen wolken onder 1500 m en geen cumulonimbus
Kans 40%
van 15 om 02 UTC tot 15 om 07 UTC
Zicht: 3000 m
nevel
Kans 40%
van 15 om 22 UTC tot 15 om 24 UTC
Zicht: 3000 m
nevel

TAF: EHEH 141748Z 1418/1524 14005KT CAVOK PROB40 1502/1507 3000 BR PROB40 1522/1524 3000 BR

Waarnemingen en weersverwachtingen van meer dan 4000 vliegvelden (METAR en TAF).

De beschikbare stations zijn de gele en rode punten op de kaart.

Ga met uw muis naar het station om de naam te zien.

Klik dan om waarnemingen en weersverwachtingen te zien.

kaart wijzigen: klik op de groene knoppen met een zwart kruis om in te zoomen, op de groene knop met een streepje om uit te zoomen of op de groene pijlen voor aangrenzende kaarten.


METAR-TAF: